Time;durP1;ratioP1;P1;durP2;ratioP2;P2;SDS_P1;SDS_P2;PMS_P1;PMS_P2;Temp;Humidity;BMP_temperature;BMP_pressure;BME280_temperature;BME280_humidity;BME280_pressure;Samples;Min_cycle;Max_cycle;Signal;HPM_P1;HPM_P2
2021/06/28 00:01:56;;;;;;;1.73;1.33;;;23.90;99.90;;;;;;6209732;23;20182;-73
2021/06/28 00:04:25;;;;;;;1.33;1.10;;;23.90;99.90;;;;;;6211772;23;20209;-75
2021/06/28 00:06:52;;;;;;;1.35;1.25;;;23.90;99.90;;;;;;6209724;23;20209;-73
2021/06/28 00:09:19;;;;;;;2.03;1.15;;;23.90;99.90;;;;;;6209194;23;20341;-75
2021/06/28 00:11:46;;;;;;;1.50;1.38;;;23.90;99.90;;;;;;6208491;23;20177;-74
2021/06/28 00:14:14;;;;;;;2.08;1.40;;;23.90;99.90;;;;;;6209389;23;20175;-77
2021/06/28 00:16:41;;;;;;;1.15;1.10;;;23.90;99.90;;;;;;6209709;23;20576;-75
2021/06/28 00:19:09;;;;;;;1.70;1.52;;;23.90;99.90;;;;;;6208768;23;20270;-73
2021/06/28 00:21:39;;;;;;;2.28;1.42;;;23.90;99.90;;;;;;6208152;23;20179;-73
2021/06/28 00:24:07;;;;;;;1.42;1.10;;;23.90;99.90;;;;;;6207911;23;20684;-73
2021/06/28 00:26:35;;;;;;;1.40;1.30;;;23.90;99.90;;;;;;6210374;23;20202;-74
2021/06/28 00:29:02;;;;;;;1.00;1.00;;;23.80;99.90;;;;;;6209139;23;20838;-74
2021/06/28 00:31:30;;;;;;;1.55;1.38;;;23.70;99.90;;;;;;6210469;23;20257;-72
2021/06/28 00:33:57;;;;;;;1.55;1.17;;;23.70;99.90;;;;;;6206945;23;20301;-73
2021/06/28 00:36:24;;;;;;;2.00;1.20;;;23.70;99.90;;;;;;6210748;23;20179;-73
2021/06/28 00:38:53;;;;;;;1.95;1.38;;;23.70;99.90;;;;;;6210479;23;20226;-73
2021/06/28 00:41:20;;;;;;;1.17;1.10;;;23.70;99.90;;;;;;6210098;23;20289;-73
2021/06/28 00:43:47;;;;;;;1.20;1.10;;;23.70;99.90;;;;;;6208237;23;21028;-74
2021/06/28 00:46:14;;;;;;;1.63;1.52;;;23.60;99.90;;;;;;6209769;23;20210;-72
2021/06/28 00:48:42;;;;;;;1.08;1.08;;;23.60;99.90;;;;;;6223048;23;20491;-74
2021/06/28 00:51:09;;;;;;;1.27;1.17;;;23.60;99.90;;;;;;6210382;23;20246;-73
2021/06/28 00:53:36;;;;;;;1.30;1.25;;;23.60;99.90;;;;;;6208619;23;20206;-74
2021/06/28 00:56:12;;;;;;;1.38;1.10;;;23.60;99.90;;;;;;6210652;23;20171;-73
2021/06/28 00:58:40;;;;;;;1.38;1.23;;;23.60;99.90;;;;;;6210383;23;20286;-73
2021/06/28 01:01:08;;;;;;;1.58;1.48;;;23.60;99.90;;;;;;6212055;23;20198;-74
2021/06/28 01:03:36;;;;;;;2.60;1.77;;;23.50;99.90;;;;;;6212463;23;20273;-73
2021/06/28 01:06:03;;;;;;;1.10;1.08;;;23.50;99.90;;;;;;6212815;23;20202;-73
2021/06/28 01:08:31;;;;;;;2.05;1.17;;;23.50;99.90;;;;;;6211634;23;20242;-73
2021/06/28 01:10:58;;;;;;;1.13;1.10;;;23.50;99.90;;;;;;6211347;23;20253;-73
2021/06/28 01:13:27;;;;;;;1.40;1.30;;;23.50;99.90;;;;;;6211397;23;20298;-73
2021/06/28 01:15:55;;;;;;;1.38;1.27;;;23.50;99.90;;;;;;6210156;23;20254;-74
2021/06/28 01:18:22;;;;;;;1.42;1.13;;;23.50;99.90;;;;;;6211684;23;20600;-74
2021/06/28 01:20:50;;;;;;;1.38;1.27;;;23.50;99.90;;;;;;6212525;23;20268;-72
2021/06/28 01:23:24;;;;;;;1.60;1.40;;;23.50;99.90;;;;;;6210233;23;20238;-73
2021/06/28 01:25:54;;;;;;;1.30;1.20;;;23.50;99.90;;;;;;6211559;23;20270;-73
2021/06/28 01:28:21;;;;;;;1.35;1.20;;;23.50;99.90;;;;;;6209266;23;20282;-73
2021/06/28 01:30:50;;;;;;;1.30;1.20;;;23.50;99.90;;;;;;6212161;23;20183;-73
2021/06/28 01:33:17;;;;;;;1.25;1.05;;;23.50;99.90;;;;;;6211980;23;20206;-74
2021/06/28 01:35:45;;;;;;;1.33;1.20;;;23.50;99.90;;;;;;6211217;23;20651;-73
2021/06/28 01:38:12;;;;;;;1.83;1.08;;;23.40;99.90;;;;;;6218039;23;20207;-74
2021/06/28 01:40:41;;;;;;;1.27;1.17;;;23.40;99.90;;;;;;6220282;23;20171;-73
2021/06/28 01:43:09;;;;;;;1.10;1.10;;;23.40;99.90;;;;;;6212356;23;20226;-73
2021/06/28 01:45:37;;;;;;;1.40;1.30;;;23.40;99.90;;;;;;6209985;23;20181;-73
2021/06/28 01:48:05;;;;;;;1.25;1.15;;;23.30;99.90;;;;;;6209607;23;20202;-74
2021/06/28 01:50:34;;;;;;;1.15;1.10;;;23.30;99.90;;;;;;6211677;23;20225;-74
2021/06/28 01:53:02;;;;;;;1.35;1.25;;;23.20;99.90;;;;;;6211250;23;20411;-72
2021/06/28 01:55:30;;;;;;;1.40;1.30;;;23.20;99.90;;;;;;6209536;23;20181;-73
2021/06/28 01:58:00;;;;;;;1.52;1.42;;;23.20;99.90;;;;;;6209089;23;20282;-73
2021/06/28 02:00:31;;;;;;;1.10;1.10;;;23.20;99.90;;;;;;6209297;23;20155;-72
2021/06/28 02:03:02;;;;;;;1.15;1.15;;;23.20;99.90;;;;;;6211309;23;20222;-73
2021/06/28 02:05:33;;;;;;;1.30;1.20;;;23.20;99.90;;;;;;6209724;23;20217;-73
2021/06/28 02:08:00;;;;;;;1.30;1.20;;;23.20;99.90;;;;;;6207307;23;20205;-71
2021/06/28 02:10:28;;;;;;;1.40;1.30;;;23.20;99.90;;;;;;6209697;23;20269;-73
2021/06/28 02:12:55;;;;;;;1.30;1.20;;;23.20;99.90;;;;;;6211850;23;20227;-73
2021/06/28 02:15:26;;;;;;;1.33;1.23;;;23.20;99.90;;;;;;6209430;23;20210;-74
2021/06/28 02:17:54;;;;;;;1.40;1.30;;;23.20;99.90;;;;;;6208092;23;20199;-72
2021/06/28 02:20:22;;;;;;;1.25;1.15;;;23.20;99.90;;;;;;6209766;23;20167;-74
2021/06/28 02:22:49;;;;;;;3.05;1.60;;;23.20;99.90;;;;;;6209422;23;20253;-72
2021/06/28 02:25:17;;;;;;;1.45;1.35;;;23.10;99.90;;;;;;6209230;23;20178;-73
2021/06/28 02:27:45;;;;;;;1.60;1.50;;;23.00;99.90;;;;;;6208894;23;20641;-72
2021/06/28 02:30:15;;;;;;;1.30;1.20;;;23.00;99.90;;;;;;6226127;23;20195;-73
2021/06/28 02:32:44;;;;;;;0.95;0.95;;;23.00;99.90;;;;;;6207474;23;20274;-73
2021/06/28 02:35:14;;;;;;;1.42;1.27;;;23.00;99.90;;;;;;6209300;23;20511;-73
2021/06/28 02:37:42;;;;;;;1.30;1.20;;;23.00;99.90;;;;;;6211150;23;20671;-73
2021/06/28 02:40:12;;;;;;;1.27;1.20;;;23.00;99.90;;;;;;6209261;23;20254;-72
2021/06/28 02:42:39;;;;;;;1.42;1.33;;;23.00;99.90;;;;;;6210938;23;20171;-71
2021/06/28 02:45:08;;;;;;;1.55;1.45;;;23.00;99.90;;;;;;6210408;23;20174;-72
2021/06/28 02:47:35;;;;;;;1.20;1.20;;;22.90;99.90;;;;;;6207452;23;20175;-73
2021/06/28 02:50:06;;;;;;;2.05;1.10;;;22.90;99.90;;;;;;6207342;23;20857;-72
2021/06/28 02:52:34;;;;;;;1.67;1.40;;;22.90;99.90;;;;;;6207862;23;20241;-73
2021/06/28 02:55:01;;;;;;;1.40;1.30;;;22.90;99.90;;;;;;6208697;23;20678;-73
2021/06/28 02:57:28;;;;;;;1.65;1.30;;;22.90;99.90;;;;;;6206844;23;20175;-73
2021/06/28 02:59:55;;;;;;;1.40;1.30;;;22.90;99.90;;;;;;6212125;23;20557;-73
2021/06/28 03:02:22;;;;;;;2.00;1.83;;;22.90;99.90;;;;;;6207942;23;20731;-73
2021/06/28 03:04:50;;;;;;;1.55;1.20;;;22.90;99.90;;;;;;6210611;23;20218;-73
2021/06/28 03:07:19;;;;;;;2.13;1.58;;;22.90;99.90;;;;;;6211027;23;20175;-73
2021/06/28 03:09:46;;;;;;;1.17;1.15;;;22.90;99.90;;;;;;6210595;23;20270;-73
2021/06/28 03:12:13;;;;;;;1.60;1.50;;;22.80;99.90;;;;;;6211819;23;20229;-73
2021/06/28 03:14:41;;;;;;;1.67;1.42;;;22.80;99.90;;;;;;6210631;23;20233;-73
2021/06/28 03:17:08;;;;;;;2.00;1.20;;;22.80;99.90;;;;;;6210846;23;20258;-73
2021/06/28 03:19:36;;;;;;;1.60;1.50;;;22.80;99.90;;;;;;6227580;23;20207;-74
2021/06/28 03:22:03;;;;;;;1.63;1.52;;;22.80;99.90;;;;;;6211449;23;20254;-73
2021/06/28 03:24:32;;;;;;;1.42;1.33;;;22.80;99.90;;;;;;6209815;23;20229;-74
2021/06/28 03:26:59;;;;;;;1.60;1.50;;;22.70;99.90;;;;;;6210956;23;20202;-73
2021/06/28 03:29:26;;;;;;;2.15;1.40;;;22.70;99.90;;;;;;6209734;23;20601;-73
2021/06/28 03:31:53;;;;;;;2.20;1.40;;;22.70;99.90;;;;;;6210662;23;20265;-73
2021/06/28 03:34:21;;;;;;;1.52;1.42;;;22.60;99.90;;;;;;6211583;23;20274;-72
2021/06/28 03:36:48;;;;;;;1.42;1.33;;;22.60;99.90;;;;;;6210888;23;20258;-74
2021/06/28 03:39:15;;;;;;;1.70;1.50;;;22.50;99.90;;;;;;6209950;23;20595;-75
2021/06/28 03:41:44;;;;;;;1.70;1.60;;;22.50;99.90;;;;;;6210741;23;20668;-74
2021/06/28 03:44:11;;;;;;;1.42;1.33;;;22.40;99.90;;;;;;6209879;23;20230;-74
2021/06/28 03:46:38;;;;;;;1.60;1.50;;;22.30;99.90;;;;;;6211377;23;20250;-74
2021/06/28 03:49:05;;;;;;;2.22;1.55;;;22.20;99.90;;;;;;6209633;23;20237;-73
2021/06/28 03:51:33;;;;;;;1.60;1.50;;;22.20;99.90;;;;;;6210419;23;20269;-73
2021/06/28 03:54:02;;;;;;;1.45;1.35;;;22.20;99.90;;;;;;6210500;23;20870;-74
2021/06/28 03:56:29;;;;;;;1.60;1.45;;;22.10;99.90;;;;;;6210329;23;20248;-74
2021/06/28 03:58:57;;;;;;;1.52;1.42;;;22.10;99.90;;;;;;6210380;23;20281;-73
2021/06/28 04:01:25;;;;;;;1.33;1.33;;;22.10;99.90;;;;;;6209275;23;20806;-72
2021/06/28 04:03:54;;;;;;;1.48;1.38;;;22.10;99.90;;;;;;6207449;23;20439;-73
2021/06/28 04:06:22;;;;;;;1.92;1.60;;;22.10;99.90;;;;;;6209188;23;20751;-73
2021/06/28 04:08:49;;;;;;;1.50;1.40;;;22.10;99.90;;;;;;6210023;23;20207;-74
2021/06/28 04:11:17;;;;;;;1.65;1.52;;;22.10;99.90;;;;;;6223317;23;20242;-73
2021/06/28 04:13:45;;;;;;;1.52;1.35;;;22.10;99.90;;;;;;6209708;23;20209;-74
2021/06/28 04:16:14;;;;;;;1.48;1.30;;;22.10;99.90;;;;;;6208517;23;20225;-74
2021/06/28 04:18:41;;;;;;;2.65;1.63;;;22.10;99.90;;;;;;6207313;23;20293;-73
2021/06/28 04:21:08;;;;;;;1.92;1.75;;;22.20;99.90;;;;;;6208823;23;20171;-73
2021/06/28 04:23:36;;;;;;;1.60;1.50;;;22.20;99.90;;;;;;6206709;23;20226;-73
2021/06/28 04:26:03;;;;;;;1.67;1.58;;;22.20;99.90;;;;;;6209422;23;20214;-73
2021/06/28 04:28:30;;;;;;;1.85;1.63;;;22.30;99.90;;;;;;6207808;23;20551;-72
2021/06/28 04:30:57;;;;;;;1.55;1.35;;;22.30;99.90;;;;;;6208701;23;20189;-73
2021/06/28 04:33:26;;;;;;;1.73;1.50;;;22.40;99.90;;;;;;6208356;23;20749;-73
2021/06/28 04:35:54;;;;;;;2.28;1.90;;;22.40;99.90;;;;;;6211515;23;20199;-73
2021/06/28 04:38:21;;;;;;;2.17;1.60;;;22.50;99.90;;;;;;6214799;23;20206;-73
2021/06/28 04:40:48;;;;;;;2.75;1.85;;;22.50;99.90;;;;;;6212476;23;20181;-73
2021/06/28 04:43:16;;;;;;;1.65;1.55;;;22.50;99.90;;;;;;6212902;23;20199;-73
2021/06/28 04:45:43;;;;;;;1.50;1.40;;;22.60;99.90;;;;;;6212821;23;20175;-74
2021/06/28 04:48:10;;;;;;;1.85;1.60;;;22.60;99.90;;;;;;6211550;23;20209;-73
2021/06/28 04:50:39;;;;;;;3.10;1.98;;;22.70;99.90;;;;;;6212584;23;20195;-74
2021/06/28 04:53:06;;;;;;;3.75;1.95;;;22.80;99.90;;;;;;6210726;23;20738;-74
2021/06/28 04:55:33;;;;;;;1.60;1.50;;;22.90;99.90;;;;;;6210119;23;20178;-74
2021/06/28 04:58:00;;;;;;;1.98;1.80;;;22.90;99.90;;;;;;6208520;23;20198;-74
2021/06/28 05:00:27;;;;;;;1.73;1.63;;;23.00;99.90;;;;;;6208423;23;20166;-74
2021/06/28 05:02:54;;;;;;;2.95;1.70;;;22.90;99.90;;;;;;6222666;23;20221;-73
2021/06/28 05:05:22;;;;;;;2.00;1.60;;;23.00;99.90;;;;;;6207181;23;20182;-74
2021/06/28 05:07:50;;;;;;;2.10;1.80;;;23.00;99.90;;;;;;6207173;23;20859;-73
2021/06/28 05:10:18;;;;;;;2.10;1.73;;;23.10;99.90;;;;;;6205051;23;20194;-75
2021/06/28 05:12:45;;;;;;;2.28;1.85;;;23.00;99.90;;;;;;6206394;23;20186;-73
2021/06/28 05:15:13;;;;;;;2.83;2.25;;;23.00;99.90;;;;;;6205478;23;20206;-74
2021/06/28 05:17:42;;;;;;;1.80;1.70;;;23.00;99.90;;;;;;6207245;23;20175;-74
2021/06/28 05:20:11;;;;;;;2.75;2.10;;;23.10;99.90;;;;;;6205787;23;20207;-73
2021/06/28 05:22:39;;;;;;;5.68;2.05;;;23.00;99.90;;;;;;6206439;23;20666;-75
2021/06/28 05:25:09;;;;;;;2.45;1.85;;;23.10;99.90;;;;;;6206711;23;20737;-74
2021/06/28 05:27:36;;;;;;;2.15;2.00;;;23.10;99.90;;;;;;6204546;23;20181;-74
2021/06/28 05:30:08;;;;;;;1.90;1.80;;;23.10;99.90;;;;;;6207288;23;20670;-75
2021/06/28 05:32:36;;;;;;;2.47;2.00;;;23.20;99.90;;;;;;6208297;23;20179;-74
2021/06/28 05:35:04;;;;;;;1.90;1.80;;;23.20;99.90;;;;;;6208433;23;20549;-74
2021/06/28 05:37:32;;;;;;;2.90;2.17;;;23.20;99.90;;;;;;6211310;23;20231;-78
2021/06/28 05:39:59;;;;;;;1.80;1.70;;;23.30;99.90;;;;;;6209936;23;20202;-76
2021/06/28 05:42:27;;;;;;;2.13;1.92;;;23.30;99.90;;;;;;6211634;23;20174;-76
2021/06/28 05:44:54;;;;;;;2.03;1.92;;;23.40;99.90;;;;;;6210340;23;20729;-76
2021/06/28 05:47:23;;;;;;;3.88;2.15;;;23.50;99.90;;;;;;6208807;23;20171;-73
2021/06/28 05:49:50;;;;;;;3.08;1.75;;;23.50;99.90;;;;;;6205690;23;20218;-76
2021/06/28 05:52:20;;;;;;;1.95;1.85;;;23.50;99.90;;;;;;6210086;23;20195;-78
2021/06/28 05:54:49;;;;;;;1.92;1.80;;;23.60;99.90;;;;;;6225397;23;20286;-75
2021/06/28 05:57:18;;;;;;;1.80;1.70;;;23.70;99.90;;;;;;6209331;23;20178;-76
2021/06/28 05:59:47;;;;;;;2.25;2.13;;;23.70;99.90;;;;;;6207461;23;20272;-76
2021/06/28 06:02:15;;;;;;;2.05;1.95;;;23.70;99.90;;;;;;6206647;23;20187;-76
2021/06/28 06:04:42;;;;;;;6.45;2.55;;;23.70;99.90;;;;;;6208672;23;20336;-77
2021/06/28 06:07:10;;;;;;;3.13;2.17;;;23.80;99.90;;;;;;6208555;23;20421;-77
2021/06/28 06:09:37;;;;;;;2.55;2.15;;;23.90;99.90;;;;;;6216833;23;20206;-78
2021/06/28 06:12:06;;;;;;;2.60;2.40;;;24.00;99.90;;;;;;6225834;23;20195;-77
2021/06/28 06:14:33;;;;;;;3.58;2.30;;;24.10;99.90;;;;;;6209631;23;20547;-77
2021/06/28 06:17:01;;;;;;;2.80;1.85;;;24.20;99.90;;;;;;6210364;23;20171;-76
2021/06/28 06:19:28;;;;;;;2.50;2.30;;;24.20;99.90;;;;;;6209674;23;20217;-78
2021/06/28 06:21:55;;;;;;;2.50;1.95;;;24.20;99.90;;;;;;6209993;23;20179;-77
2021/06/28 06:24:27;;;;;;;2.15;2.03;;;24.30;99.90;;;;;;6209541;23;20200;-77
2021/06/28 06:26:54;;;;;;;3.35;2.05;;;24.30;99.90;;;;;;6210936;23;20170;-77
2021/06/28 06:29:21;;;;;;;2.63;2.35;;;24.40;99.90;;;;;;6208556;23;20210;-78
2021/06/28 06:31:48;;;;;;;2.72;2.25;;;24.40;99.90;;;;;;6209495;23;20194;-77
2021/06/28 06:34:17;;;;;;;2.33;2.13;;;24.50;99.90;;;;;;6209671;23;20721;-76
2021/06/28 06:36:44;;;;;;;3.00;2.28;;;24.60;99.90;;;;;;6210832;23;20197;-77
2021/06/28 06:39:11;;;;;;;2.55;2.35;;;24.70;99.90;;;;;;6209228;23;20214;-77
2021/06/28 06:41:38;;;;;;;2.13;2.03;;;24.70;99.90;;;;;;6210758;23;20155;-76
2021/06/28 06:44:06;;;;;;;2.45;2.10;;;24.80;99.90;;;;;;6214477;23;20186;-78
2021/06/28 06:46:33;;;;;;;2.45;2.25;;;25.00;99.90;;;;;;6220334;23;20171;-77
2021/06/28 06:49:00;;;;;;;2.55;2.35;;;24.90;99.90;;;;;;6208683;23;20199;-77
2021/06/28 06:51:29;;;;;;;2.00;1.90;;;24.90;99.90;;;;;;6209093;23;20191;-77
2021/06/28 06:53:56;;;;;;;2.25;2.05;;;24.90;99.90;;;;;;6208631;23;20705;-77
2021/06/28 06:56:23;;;;;;;2.83;2.10;;;24.90;99.90;;;;;;6217222;23;20175;-77
2021/06/28 06:58:52;;;;;;;2.17;2.00;;;25.00;99.90;;;;;;6216181;23;20713;-76
2021/06/28 07:01:19;;;;;;;2.42;2.00;;;25.10;99.90;;;;;;6209961;23;20167;-76
2021/06/28 07:03:46;;;;;;;2.97;1.90;;;25.10;99.90;;;;;;6207481;23;20207;-77
2021/06/28 07:06:14;;;;;;;2.00;1.90;;;25.20;99.90;;;;;;6208126;23;20174;-76
2021/06/28 07:08:43;;;;;;;4.55;2.03;;;25.30;99.90;;;;;;6209754;23;20221;-77
2021/06/28 07:11:11;;;;;;;2.55;2.30;;;25.40;99.90;;;;;;6210050;23;20230;-76
2021/06/28 07:13:39;;;;;;;3.67;2.17;;;25.50;99.90;;;;;;6207845;23;20202;-77
2021/06/28 07:16:07;;;;;;;2.58;2.38;;;25.50;99.90;;;;;;6209137;23;20171;-77
2021/06/28 07:18:34;;;;;;;3.25;2.20;;;25.50;99.90;;;;;;6208304;23;20207;-77
2021/06/28 07:21:02;;;;;;;2.55;1.90;;;25.70;99.90;;;;;;6209977;23;20174;-77
2021/06/28 07:23:29;;;;;;;2.55;2.25;;;25.90;99.90;;;;;;6208522;23;20174;-75
2021/06/28 07:25:59;;;;;;;2.50;2.30;;;25.90;99.90;;;;;;6208496;23;20171;-78
2021/06/28 07:28:28;;;;;;;2.20;2.10;;;26.00;99.90;;;;;;6202699;23;20202;-76
2021/06/28 07:30:57;;;;;;;3.03;2.40;;;26.10;99.90;;;;;;6205589;23;20179;-76
2021/06/28 07:33:24;;;;;;;2.00;1.90;;;26.20;99.90;;;;;;6203538;23;20186;-76
2021/06/28 07:35:52;;;;;;;7.97;2.70;;;26.30;99.90;;;;;;6220011;23;20171;-80
2021/06/28 07:38:19;;;;;;;2.40;2.20;;;26.40;99.90;;;;;;6206751;23;20257;-77
2021/06/28 07:40:46;;;;;;;2.30;2.10;;;26.40;99.90;;;;;;6206143;23;20455;-76
2021/06/28 07:43:17;;;;;;;2.50;2.30;;;26.40;99.90;;;;;;6222224;23;20167;-78
2021/06/28 07:45:47;;;;;;;2.88;2.03;;;26.40;99.90;;;;;;6211606;23;20178;-76
2021/06/28 07:48:15;;;;;;;2.47;2.28;;;26.50;99.90;;;;;;6205461;23;20202;-76
2021/06/28 07:50:43;;;;;;;2.15;1.95;;;26.70;99.90;;;;;;6205184;23;20202;-77
2021/06/28 07:53:10;;;;;;;2.30;2.10;;;26.90;99.90;;;;;;6204433;23;20174;-76
2021/06/28 07:55:37;;;;;;;3.50;2.30;;;27.00;99.90;;;;;;6206015;23;20203;-77
2021/06/28 07:58:05;;;;;;;2.50;1.95;;;27.00;99.90;;;;;;6208087;23;20213;-77
2021/06/28 08:00:34;;;;;;;2.40;2.28;;;27.10;99.90;;;;;;6204702;23;20225;-76
2021/06/28 08:03:01;;;;;;;3.95;2.28;;;27.20;99.90;;;;;;6204300;23;20177;-77
2021/06/28 08:05:29;;;;;;;3.38;2.22;;;27.30;99.90;;;;;;6204022;23;20206;-77
2021/06/28 08:07:57;;;;;;;3.00;2.65;;;27.30;99.90;;;;;;6207375;23;20191;-76
2021/06/28 08:10:24;;;;;;;1.90;1.80;;;27.40;99.90;;;;;;6205095;23;20675;-77
2021/06/28 08:12:51;;;;;;;3.05;2.33;;;27.50;99.90;;;;;;6206092;23;20195;-77
2021/06/28 08:15:20;;;;;;;2.55;2.20;;;27.40;99.90;;;;;;6202015;23;20585;-77
2021/06/28 08:17:50;;;;;;;2.47;2.30;;;27.50;99.90;;;;;;6206678;23;20207;-76
2021/06/28 08:20:18;;;;;;;2.60;2.40;;;27.40;99.90;;;;;;6204970;23;20233;-76
2021/06/28 08:22:46;;;;;;;2.63;2.42;;;27.40;99.90;;;;;;6207210;23;20209;-76
2021/06/28 08:25:15;;;;;;;2.65;2.45;;;27.50;99.90;;;;;;6204393;23;20203;-77
2021/06/28 08:27:43;;;;;;;3.35;2.65;;;27.80;99.90;;;;;;6220613;23;20179;-76
2021/06/28 08:30:11;;;;;;;3.22;1.95;;;27.90;99.90;;;;;;6224565;23;20237;-75
2021/06/28 08:32:38;;;;;;;2.53;2.30;;;28.10;99.90;;;;;;6205166;23;20191;-77
2021/06/28 08:35:08;;;;;;;2.10;1.90;;;28.20;99.90;;;;;;6204357;23;20207;-77
2021/06/28 08:37:36;;;;;;;2.40;2.20;;;28.30;99.90;;;;;;6204394;23;20175;-77
2021/06/28 08:40:03;;;;;;;4.22;2.70;;;28.30;99.90;;;;;;6203977;23;20274;-77
2021/06/28 08:42:30;;;;;;;2.60;2.30;;;28.20;99.90;;;;;;6204393;23;20175;-77
2021/06/28 08:44:57;;;;;;;3.28;2.40;;;28.30;99.90;;;;;;6205660;23;20553;-77
2021/06/28 08:47:27;;;;;;;2.78;2.42;;;28.40;99.90;;;;;;6204720;23;20635;-77
2021/06/28 08:49:54;;;;;;;2.97;2.53;;;28.60;99.90;;;;;;6205500;23;20226;-77
2021/06/28 08:52:23;;;;;;;2.50;2.30;;;28.50;99.90;;;;;;6204463;23;20202;-75
2021/06/28 08:54:50;;;;;;;3.15;2.20;;;28.60;99.90;;;;;;6206044;23;20233;-77
2021/06/28 08:57:19;;;;;;;2.53;2.33;;;28.50;99.90;;;;;;6205989;23;20190;-77
2021/06/28 08:59:46;;;;;;;4.93;2.38;;;28.60;99.90;;;;;;6203329;23;20214;-77
2021/06/28 09:02:13;;;;;;;2.38;2.22;;;28.70;99.90;;;;;;6205354;23;20168;-78
2021/06/28 09:04:58;;;;;;;2.83;2.15;;;28.80;99.90;;;;;;6205344;23;20230;-77
2021/06/28 09:07:27;;;;;;;2.47;2.17;;;28.80;99.90;;;;;;6207008;23;20186;-77
2021/06/28 09:09:54;;;;;;;2.95;2.22;;;29.10;99.90;;;;;;6204848;23;20213;-79
2021/06/28 09:12:22;;;;;;;2.65;2.20;;;29.30;99.90;;;;;;6207824;23;20195;-80
2021/06/28 09:14:51;;;;;;;3.05;2.70;;;29.10;99.90;;;;;;6209284;23;20206;-79
2021/06/28 09:17:33;;;;;;;3.72;2.20;;;29.10;99.90;;;;;;6225541;23;20179;-79
2021/06/28 09:20:14;;;;;;;2.47;2.28;;;29.20;99.90;;;;;;6210462;23;20208;-79
2021/06/28 09:22:45;;;;;;;2.47;2.28;;;29.30;99.90;;;;;;6208718;23;20171;-77
2021/06/28 09:25:30;;;;;;;3.03;2.47;;;29.20;99.90;;;;;;6206255;23;20210;-78
2021/06/28 09:27:58;;;;;;;2.45;2.22;;;29.10;99.90;;;;;;6208258;23;20191;-78
2021/06/28 09:30:26;;;;;;;2.33;2.13;;;29.10;99.90;;;;;;6206767;23;20203;-78
2021/06/28 09:32:55;;;;;;;2.70;2.50;;;29.10;99.90;;;;;;6207917;23;20199;-79
2021/06/28 09:35:32;;;;;;;3.15;2.33;;;29.30;99.90;;;;;;6208483;23;20206;-78
2021/06/28 09:38:07;;;;;;;2.33;2.13;;;29.30;99.90;;;;;;6209745;23;20202;-79
2021/06/28 09:40:36;;;;;;;2.67;2.47;;;29.40;99.90;;;;;;6207735;23;20202;-78
2021/06/28 09:43:21;;;;;;;2.95;2.40;;;29.60;99.90;;;;;;6206894;23;20662;-80
2021/06/28 09:45:51;;;;;;;2.63;2.00;;;29.70;99.90;;;;;;6207699;23;20294;-79
2021/06/28 09:48:26;;;;;;;2.13;2.03;;;29.90;99.90;;;;;;6206329;23;20294;-79
2021/06/28 09:51:23;;;;;;;2.45;2.20;;;30.40;99.90;;;;;;6206954;23;20472;-79
2021/06/28 09:53:55;;;;;;;3.17;2.15;;;30.60;99.90;;;;;;6204211;23;20194;-79
2021/06/28 09:56:33;;;;;;;2.85;1.85;;;30.60;99.90;;;;;;6207725;23;20164;-79
2021/06/28 09:59:19;;;;;;;2.00;1.90;;;30.70;99.90;;;;;;6206208;23;20210;-77
2021/06/28 10:01:47;;;;;;;2.55;2.35;;;30.80;99.90;;;;;;6219181;23;20143;-78
2021/06/28 10:04:37;;;;;;;2.35;2.22;;;30.70;99.90;;;;;;6215783;23;20683;-79
2021/06/28 10:07:24;;;;;;;2.47;1.90;;;30.70;99.90;;;;;;6211792;23;20167;-79
2021/06/28 10:10:17;;;;;;;2.45;2.00;;;30.90;99.90;;;;;;6218724;23;20203;-79
2021/06/28 10:12:47;;;;;;;2.25;2.05;;;30.80;99.90;;;;;;6207747;23;20215;-79
2021/06/28 10:15:16;;;;;;;1.90;1.80;;;30.70;99.90;;;;;;6206264;23;20199;-76
2021/06/28 10:17:44;;;;;;;3.78;1.70;;;30.70;99.90;;;;;;6207036;23;20171;-79
2021/06/28 10:20:13;;;;;;;3.40;1.88;;;30.70;99.90;;;;;;6203787;23;20230;-79
2021/06/28 10:22:42;;;;;;;2.50;2.05;;;30.70;99.90;;;;;;6208925;23;20171;-79
2021/06/28 10:25:12;;;;;;;2.72;2.13;;;30.60;99.90;;;;;;6206534;23;20198;-77
2021/06/28 10:27:40;;;;;;;2.13;1.92;;;30.50;99.90;;;;;;6207376;23;20175;-80
2021/06/28 10:30:09;;;;;;;1.90;1.80;;;30.60;99.90;;;;;;6206077;23;20546;-80
2021/06/28 10:32:38;;;;;;;3.20;1.67;;;30.80;99.90;;;;;;6208077;23;20201;-79
2021/06/28 10:35:07;;;;;;;2.15;1.95;;;30.80;99.90;;;;;;6206514;23;20209;-78
2021/06/28 10:37:39;;;;;;;2.20;1.88;;;30.90;99.90;;;;;;6211562;23;20225;-80
2021/06/28 10:40:12;;;;;;;2.13;1.73;;;31.00;99.90;;;;;;6208424;23;20199;-79
2021/06/28 10:42:41;;;;;;;1.60;1.50;;;31.30;99.90;;;;;;6208167;23;20155;-79
2021/06/28 10:45:11;;;;;;;1.95;1.58;;;31.40;99.90;;;;;;6209178;23;20203;-80
2021/06/28 10:47:40;;;;;;;3.17;1.60;;;31.40;99.90;;;;;;6211200;23;20437;-80
2021/06/28 10:50:09;;;;;;;2.55;1.63;;;31.30;99.90;;;;;;6225030;23;20203;-80
2021/06/28 10:52:50;;;;;;;2.25;2.05;;;31.50;99.90;;;;;;6211690;23;20213;-80
2021/06/28 10:55:41;;;;;;;1.95;1.75;;;31.50;99.90;;;;;;6210323;23;20206;-80
2021/06/28 10:58:32;;;;;;;2.17;1.90;;;31.70;99.90;;;;;;6210212;23;20195;-79
2021/06/28 11:01:06;;;;;;;2.35;1.80;;;31.80;99.90;;;;;;6220727;23;20278;-80
2021/06/28 11:03:36;;;;;;;4.72;1.90;;;31.60;99.90;;;;;;6210384;23;20189;-80
2021/06/28 11:06:22;;;;;;;1.73;1.63;;;31.50;99.90;;;;;;6206978;23;20266;-80
2021/06/28 11:09:16;;;;;;;2.10;1.73;;;31.80;99.90;;;;;;6206177;23;20199;-79
2021/06/28 11:12:01;;;;;;;1.90;1.70;;;31.90;99.90;;;;;;6134876;23;20199;-79
2021/06/28 11:14:43;;;;;;;1.77;1.67;;;31.80;99.90;;;;;;6204513;23;20174;-79
2021/06/28 11:17:14;;;;;;;6.50;2.20;;;31.90;99.90;;;;;;6207591;23;20206;-78
2021/06/28 11:19:58;;;;;;;1.95;1.83;;;31.70;99.90;;;;;;6207327;23;20194;-80
2021/06/28 11:22:37;;;;;;;3.33;1.70;;;31.70;99.90;;;;;;6207042;23;20199;-80
2021/06/28 11:25:12;;;;;;;1.52;1.40;;;31.90;99.90;;;;;;6205159;23;20159;-79
2021/06/28 11:27:44;;;;;;;1.55;1.45;;;31.90;99.90;;;;;;6207339;23;20526;-78
2021/06/28 11:30:23;;;;;;;1.80;1.70;;;32.00;99.90;;;;;;6207197;23;20183;-79
2021/06/28 11:32:59;;;;;;;3.53;1.60;;;32.40;99.90;;;;;;6206773;23;20203;-79
2021/06/28 11:35:41;;;;;;;2.30;1.40;;;32.60;99.90;;;;;;6217674;23;20671;-79
2021/06/28 11:38:20;;;;;;;1.75;1.50;;;32.90;99.90;;;;;;6206651;23;20206;-78
2021/06/28 11:40:52;;;;;;;4.07;1.70;;;33.00;99.90;;;;;;6203872;23;20170;-79
2021/06/28 11:43:38;;;;;;;3.63;1.60;;;32.80;99.90;;;;;;6205681;23;20260;-78
2021/06/28 11:46:07;;;;;;;2.58;1.63;;;32.70;99.90;;;;;;6204496;23;20984;-79
2021/06/28 11:48:39;;;;;;;1.55;1.45;;;32.70;99.90;;;;;;6204877;23;20207;-76
2021/06/28 11:51:18;;;;;;;2.25;1.40;;;32.80;99.90;;;;;;6216561;23;20175;-80
2021/06/28 11:53:52;;;;;;;3.10;1.58;;;32.80;99.90;;;;;;6205903;23;20210;-79
2021/06/28 11:56:31;;;;;;;1.88;1.65;;;32.90;99.90;;;;;;6206074;23;20163;-79
2021/06/28 11:59:02;;;;;;;2.05;1.45;;;32.80;99.90;;;;;;6205414;23;20218;-79
2021/06/28 12:01:31;;;;;;;2.47;1.73;;;32.80;99.90;;;;;;6204880;23;20501;-78
2021/06/28 12:04:00;;;;;;;2.45;1.88;;;32.90;99.90;;;;;;6206014;23;20199;-78
2021/06/28 12:06:29;;;;;;;1.45;1.35;;;33.00;99.90;;;;;;6207477;23;20506;-77
2021/06/28 12:09:07;;;;;;;1.83;1.30;;;33.10;99.40;;;;;;6207201;23;20683;-79
2021/06/28 12:11:35;;;;;;;3.53;1.70;;;33.30;99.80;;;;;;6205993;23;20658;-78
2021/06/28 12:14:05;;;;;;;2.13;1.30;;;33.30;99.10;;;;;;6205739;23;20205;-79
2021/06/28 12:16:32;;;;;;;1.63;1.40;;;33.40;99.30;;;;;;6208671;23;20175;-79
2021/06/28 12:19:05;;;;;;;2.38;1.30;;;33.50;99.30;;;;;;6206373;23;20206;-78
2021/06/28 12:21:34;;;;;;;1.45;1.20;;;33.60;97.70;;;;;;6217094;23;20163;-79
2021/06/28 12:24:07;;;;;;;10.60;1.50;;;33.70;98.40;;;;;;6209501;23;20203;-79
2021/06/28 12:26:34;;;;;;;2.38;1.55;;;33.90;97.10;;;;;;6205823;23;20159;-79
2021/06/28 12:29:31;;;;;;;1.90;1.70;;;33.70;96.30;;;;;;6204855;23;20206;-79
2021/06/28 12:32:13;;;;;;;1.38;1.20;;;33.60;95.60;;;;;;6204652;23;20265;-78
2021/06/28 12:34:45;;;;;;;1.58;1.23;;;33.60;94.30;;;;;;6205596;23;20659;-78
2021/06/28 12:37:12;;;;;;;2.05;1.45;;;33.50;95.40;;;;;;6205719;23;20199;-77
2021/06/28 12:39:39;;;;;;;3.15;1.50;;;33.50;95.30;;;;;;6206069;23;20199;-78
2021/06/28 12:42:15;;;;;;;3.10;1.58;;;33.40;95.70;;;;;;6214595;23;20198;-78
2021/06/28 12:44:44;;;;;;;1.83;1.60;;;33.20;95.50;;;;;;6203950;23;20175;-77
2021/06/28 12:47:13;;;;;;;1.83;1.38;;;33.30;96.30;;;;;;6204888;23;20238;-77
2021/06/28 12:49:40;;;;;;;1.48;1.30;;;33.60;96.70;;;;;;6204627;23;20198;-77
2021/06/28 12:52:36;;;;;;;1.60;1.42;;;33.80;96.20;;;;;;6206324;23;20202;-78
2021/06/28 12:55:09;;;;;;;1.05;1.05;;;33.70;94.90;;;;;;6206625;23;20611;-76
2021/06/28 12:57:37;;;;;;;1.45;1.30;;;33.80;95.10;;;;;;6207542;23;20622;-77
2021/06/28 13:00:21;;;;;;;2.60;1.40;;;33.70;94.20;;;;;;6208264;23;20542;-77
2021/06/28 13:02:58;;;;;;;1.40;1.30;;;33.70;94.80;;;;;;6205894;23;20580;-78